createdAt,value
2019-03-10T11:27:46.752Z,11.80
2019-03-10T11:33:04.814Z,12.90
2019-03-10T11:38:34.167Z,13.00
2019-03-10T11:44:08.641Z,13.20
2019-03-10T11:49:33.726Z,13.20
2019-03-10T11:54:57.457Z,13.20
2019-03-10T12:00:29.452Z,13.10
2019-03-10T12:05:54.177Z,13.20
2019-03-10T12:11:03.287Z,13.40
2019-03-10T12:16:08.828Z,13.60
2019-03-10T12:21:13.778Z,13.70
2019-03-10T12:26:18.607Z,13.60
2019-03-10T12:31:25.395Z,13.80
2019-03-10T12:36:30.403Z,14.10
2019-03-10T12:41:34.390Z,14.50
2019-03-10T12:46:39.352Z,14.70
2019-03-10T12:51:44.576Z,15.00
2019-03-10T12:56:48.705Z,15.20
2019-03-10T13:01:52.784Z,15.40
2019-03-10T13:06:56.856Z,15.70
2019-03-10T13:12:02.633Z,15.80
2019-03-10T13:17:06.944Z,15.90
2019-03-10T13:22:11.109Z,15.90
2019-03-10T13:27:14.551Z,15.90
2019-03-10T13:32:19.708Z,15.90
2019-03-10T13:37:23.993Z,16.10
2019-03-10T13:42:28.151Z,16.20
2019-03-10T13:47:32.768Z,16.10
2019-03-10T13:52:36.895Z,16.10
2019-03-10T13:57:42.136Z,15.90
2019-03-10T14:02:46.612Z,15.70
2019-03-10T14:07:52.174Z,15.50
2019-03-10T14:12:57.732Z,15.40
2019-03-10T14:18:03.181Z,15.30
2019-03-10T14:23:08.623Z,15.40
2019-03-10T14:28:13.041Z,15.60
2019-03-10T14:33:19.189Z,15.20
2019-03-10T14:38:24.452Z,15.00
2019-03-10T14:43:30.217Z,15.20
2019-03-10T14:48:35.662Z,14.90
2019-03-10T14:53:40.627Z,14.70
2019-03-10T14:58:45.730Z,14.50
2019-03-10T15:03:51.144Z,14.40
2019-03-10T15:08:58.314Z,14.30
2019-03-10T15:14:03.372Z,14.10
2019-03-10T15:19:08.888Z,14.10
2019-03-10T15:24:13.077Z,14.00
2019-03-10T15:29:18.304Z,13.90
2019-03-10T15:34:24.298Z,13.80
2019-03-10T15:39:29.555Z,13.60
2019-03-10T15:44:34.448Z,13.50
2019-03-10T15:49:39.639Z,13.70
2019-03-10T15:54:44.419Z,13.80
2019-03-10T15:59:49.405Z,13.70
2019-03-10T16:04:54.807Z,13.40
2019-03-10T16:10:00.415Z,13.30
2019-03-10T16:15:06.392Z,13.40
2019-03-10T16:20:11.926Z,13.40
2019-03-10T16:25:16.679Z,13.20
2019-03-10T16:30:22.099Z,13.10
2019-03-10T16:35:28.359Z,13.00
2019-03-10T16:40:33.861Z,12.80
2019-03-10T16:45:39.113Z,12.50
2019-03-10T16:50:44.059Z,12.40
2019-03-10T16:55:49.130Z,12.10
2019-03-10T17:00:54.644Z,12.20
2019-03-10T17:05:59.881Z,12.10
2019-03-10T17:11:05.592Z,12.10
2019-03-10T17:16:10.804Z,11.90
2019-03-10T17:21:16.914Z,11.70
2019-03-10T17:26:20.556Z,11.50
2019-03-10T17:31:25.284Z,11.40
2019-03-10T17:36:30.324Z,11.10
2019-03-10T17:41:34.618Z,11.00
2019-03-10T17:46:39.624Z,11.00
2019-03-10T17:51:44.769Z,10.80
2019-03-10T17:56:49.064Z,10.70
2019-03-10T18:01:54.031Z,10.60
2019-03-10T18:06:58.287Z,10.60
2019-03-10T18:12:04.303Z,10.50
2019-03-10T18:17:08.607Z,10.50
2019-03-10T18:22:12.727Z,10.40
2019-03-10T18:27:16.118Z,10.40
2019-03-10T18:32:22.878Z,10.30
2019-03-10T18:37:31.762Z,10.30
2019-03-10T18:42:35.583Z,10.30
2019-03-10T18:47:42.460Z,10.10
2019-03-10T18:52:48.342Z,9.50
2019-03-10T18:57:53.066Z,9.00
2019-03-10T19:02:58.275Z,8.80
2019-03-10T19:08:02.037Z,8.70
2019-03-10T19:13:06.312Z,8.70
2019-03-10T19:18:11.389Z,8.50
2019-03-10T19:23:36.704Z,8.20
2019-03-10T19:28:42.545Z,8.20
2019-03-10T19:33:49.535Z,8.20
2019-03-10T19:38:55.453Z,7.90
2019-03-10T19:44:00.672Z,7.60
2019-03-10T19:49:05.824Z,7.20
2019-03-10T19:54:10.704Z,7.10
2019-03-10T19:59:15.916Z,7.10
2019-03-10T20:04:21.008Z,7.10
2019-03-10T20:09:26.671Z,7.00
2019-03-10T20:14:34.090Z,7.00
2019-03-10T20:19:39.240Z,7.10
2019-03-10T20:24:43.937Z,7.00
2019-03-10T20:29:49.650Z,6.90
2019-03-10T20:34:54.504Z,6.90
2019-03-10T20:39:59.708Z,6.90
2019-03-10T20:45:05.657Z,6.90
2019-03-10T20:50:13.467Z,6.90
2019-03-10T20:55:19.089Z,6.80
2019-03-10T21:00:24.732Z,6.90
2019-03-10T21:05:30.561Z,6.90
2019-03-10T21:10:35.872Z,6.70
2019-03-10T21:15:51.178Z,6.70
2019-03-10T21:20:56.567Z,6.60
2019-03-10T21:26:01.470Z,6.60
2019-03-10T21:31:07.276Z,6.50
2019-03-10T21:36:12.254Z,6.50
2019-03-10T21:41:17.058Z,6.50
2019-03-10T21:46:20.527Z,6.50
2019-03-10T21:51:24.647Z,6.70
2019-03-10T21:56:29.717Z,6.60
2019-03-10T22:01:34.363Z,6.70
2019-03-10T22:07:20.578Z,6.70
2019-03-10T22:12:25.222Z,6.60
2019-03-10T22:17:29.770Z,6.60
2019-03-10T22:22:37.072Z,6.60
2019-03-10T22:27:40.425Z,6.60
2019-03-10T22:32:45.354Z,6.50
2019-03-10T22:37:49.522Z,6.60
2019-03-10T22:42:54.661Z,6.60
2019-03-10T22:47:59.057Z,6.40
2019-03-10T22:53:03.072Z,6.30
2019-03-10T22:58:07.996Z,6.40
2019-03-10T23:03:13.510Z,6.50
2019-03-10T23:08:18.108Z,6.50
2019-03-10T23:13:23.254Z,6.50
2019-03-10T23:18:28.316Z,6.40
2019-03-10T23:23:33.471Z,6.50
2019-03-10T23:28:38.683Z,6.50
2019-03-10T23:33:43.493Z,6.50
2019-03-10T23:38:48.533Z,6.50
2019-03-10T23:43:53.823Z,6.40
2019-03-10T23:48:58.818Z,6.50
2019-03-10T23:54:04.049Z,6.50
2019-03-10T23:59:09.167Z,6.40
